Tropical Cyclones
[Index]
Main Index Home Page Stock Weather Photos Extreme Storms Discussion Storm News and Storm Chasing Reports Tropical Cyclones / Hurricanes / Typhoons Weather Data and Links Wild Fires / Bushfires Weather Observation Techniques Weather Picture Catalogue Tornado Pictures and Reports Stock Video Footage and DVDs for sale
Season 1956-1957 Tropical Cyclone 195721 Track Map
Season 1956-1957 Summaries: [BoM-AU] [JTWC-AU] [JTWC-SIO] [JTWC-SPAC] [JTWC-SH]
<<- Previous TC | JTWC 1956-1957 Season | Next TC ->>

click for intensity scale information  Lat/long Grid: Show Hide

 Date Labels: Show Hide

Joint Typhoon Warning Centre Cyclone Data

Name: 195721
Number: 298 / 5721

10 Feb 1957 00:00 UTC to 17 Feb 1957 18:00 UTC

    date/time    lat    long     hPa   cat  kts
1957-02-10 00   12.1   121.6                              
1957-02-10 06   12.8   121.8                              
1957-02-10 12   13.4   121.9                              
1957-02-10 18   13.9   122.1                              
1957-02-11 00   14.2   122.3                              
1957-02-11 06   14.4   122.5                              
1957-02-11 12   14.6   122.7                              
1957-02-11 18   14.9   122.9                              
1957-02-12 00   15.1   123.0                              
1957-02-12 06   15.4   123.1                              
1957-02-12 12   15.6   123.1                              
1957-02-12 18   15.9   123.1                              
1957-02-13 00   16.1   123.0                              
1957-02-13 06   16.3   122.8                              
1957-02-13 12   16.5   122.7                              
1957-02-13 18   16.7   122.5                              
1957-02-14 00   17.1   122.3                              
1957-02-14 06   17.5   121.9                              
1957-02-14 12   18.0   121.5                              
1957-02-14 18   18.4   121.1                              
1957-02-15 00   18.9   120.6                              
1957-02-15 06   19.4   120.1                              
1957-02-15 12   19.9   119.6                              
1957-02-15 18   20.5   119.1                              
1957-02-16 00   21.1   118.5                              
1957-02-16 06   22.0   117.7                              
1957-02-16 12   23.0   116.9                              
1957-02-16 18   23.9   116.0                              
1957-02-17 00   25.3   116.0                              
1957-02-17 06   27.5   117.1                              
1957-02-17 12   29.6   118.6                              
1957-02-17 18   31.7   120.1                              
Winds are 1-min average.

Tropical cyclone tracks developed by Michael Bath using data from the Joint Typhoon Warning Centre Best Tracks and Google Maps.


[Australian Severe Weather index] [Copyright Notice] [Email Contacts] [Search This Site] [Privacy Policy]
Document: tropical_cyclone_195721.htm Updated: 18 September 2016